METAR Data
IDs: Format: Raw Decoded Include TAF

Data at: 0132 UTC 22 Jan 2020

METAR for:KEDC (Austin/Executive Arp, TX, US)
Text:KEDC 220115Z AUTO 14008KT 10SM SCT045 SCT090 OVC120 12/00 A3028 RMK AO2
Temperature: 12.0°C ( 54°F)
Dewpoint: 0.0°C ( 32°F) [RH = 44%]
Pressure (altimeter):30.28 inches Hg (1025.5 mb)
Winds:from the SE (140 degrees) at 9 MPH (8 knots; 4.1 m/s)
Visibility:10 or more sm (16+ km)
Ceiling:12000 feet AGL
Clouds: scattered clouds at 4500 feet AGL, scattered clouds at 9000 feet AGL, overcast cloud deck at 12000 feet AGL
QC Flag:automated observation with no human augmentation